Terminal Aerodrome Forecast
Issued by NWS Sioux Falls, SD

Home | Current Version | Previous Version | Graphics & Text | Print | Product List | Glossary On
Versions: 1 2 3 4 5 6 7 8 9 10 11 12 13 14 15 16 17
503
FTUS43 KFSD 160525
TAFFSD
TAF
KFSD 160525Z 1606/1706 VRB03KT P6SM FEW250
     FM161300 13008KT P6SM BKN200
     FM161500 14013G21KT P6SM BKN130
     FM162000 16019G30KT P6SM SCT140=

USA.gov is the U.S. government's official web portal to all federal, state and local government web resources and services.